Maersk Dayton — DDSC2 — position and weather

sailwx.info

Track history (hours):
 
Tides and Currents Weather Stations Pressure Air Temp Water Temp Dewpoint Dewpoint Depression Visibility Wind Speed Wind Dir Waves Ship Positions

Maersk Dayton

Last reported at 2018-Jan-21 12:08 UTC. Time now 2018-Jan-22 04:30 UTC.
Position N 01°15' E 104°13'.

Length 281 m; beam 32.2 m; draft 12.5 m.

Type: Ship. MMSI: 218024000.

Date/timePositionNaut miles runAvg speedWind from/ knotsBaromVisibWave heightAir tempDewpointWater temp
2018-Jan-21 12:08N 01°15' E 104°13'718.1
2018-Jan-21 11:46N 01°15' E 104°06'518.1
2018-Jan-21 11:30N 01°15' E 104°01'916.4
2018-Jan-21 10:57N 01°13' E 103°53'3 7.4
2018-Jan-21 10:30N 01°16' E 103°51'0 0.3
2018-Jan-21 09:51N 01°16' E 103°50'0 0.0
2018-Jan-21 09:27N 01°16' E 103°50'0 0.0
2018-Jan-21 08:57N 01°16' E 103°50'0 0.1
2018-Jan-21 08:21N 01°16' E 103°50'0 0.2
2018-Jan-21 07:58N 01°16' E 103°50'0 0.0
2018-Jan-21 07:07N 01°16' E 103°50'0 0.0
2018-Jan-21 06:22N 01°16' E 103°50'0 0.0
2018-Jan-21 05:55N 01°16' E 103°50'0 0.1
2018-Jan-21 05:21N 01°16' E 103°50'0 0.1
2018-Jan-21 04:33N 01°16' E 103°50'0 0.0
2018-Jan-21 04:30N 01°16' E 103°50'0 0.1
2018-Jan-21 03:54N 01°16' E 103°50'0 0.1
2018-Jan-21 03:29N 01°16' E 103°50'0 0.0
2018-Jan-21 02:59N 01°16' E 103°50'0 0.1
2018-Jan-21 02:29N 01°16' E 103°50'0 0.1
2018-Jan-21 01:59N 01°16' E 103°50'0 0.0
2018-Jan-21 01:05N 01°16' E 103°50'0 0.0
2018-Jan-21 00:59N 01°16' E 103°50'0 0.1
2018-Jan-21 00:24N 01°16' E 103°50'0 1.0
2018-Jan-21 00:00N 01°16' E 103°51'3 5.4
2018-Jan-20 23:30N 01°13' E 103°52'5 9.3
2018-Jan-20 23:00N 01°13' E 103°48'3 6.2
2018-Jan-20 22:30N 01°16' E 103°47'0 0.4
2018-Jan-20 21:58N 01°16' E 103°47'0 0.0
2018-Jan-20 21:27N 01°16' E 103°47'0 0.0
2018-Jan-20 20:57N 01°16' E 103°47'0 0.0
2018-Jan-20 20:24N 01°16' E 103°47'0 0.0
2018-Jan-20 19:54N 01°16' E 103°47'0 0.1
2018-Jan-20 19:27N 01°16' E 103°47'0 0.0
2018-Jan-20 18:53N 01°16' E 103°47'0 0.0
2018-Jan-20 18:26N 01°16' E 103°47'0 0.0
2018-Jan-20 17:46N 01°16' E 103°47'0 0.0
2018-Jan-20 17:22N 01°16' E 103°47'0 0.0
2018-Jan-20 16:58N 01°16' E 103°47'0 0.0
2018-Jan-20 16:28N 01°16' E 103°47'0 0.0
2018-Jan-20 15:55N 01°16' E 103°47'0 0.0
2018-Jan-20 15:28N 01°16' E 103°47'0 0.0
2018-Jan-20 14:58N 01°16' E 103°47'0 0.0
2018-Jan-20 14:30N 01°17' E 103°47'0 0.0
2018-Jan-20 13:58N 01°16' E 103°47'0 0.0
2018-Jan-20 13:28N 01°16' E 103°47'0 0.0
2018-Jan-20 12:58N 01°16' E 103°47'0 0.0
2018-Jan-20 12:22N 01°16' E 103°47'0 0.0
2018-Jan-20 11:52N 01°16' E 103°47'0 0.0
2018-Jan-20 11:25N 01°16' E 103°47'0 0.0
2018-Jan-20 10:58N 01°16' E 103°47'0 0.0
2018-Jan-20 10:16N 01°16' E 103°47'0 0.0
2018-Jan-20 09:58N 01°16' E 103°47'0 0.0
2018-Jan-20 09:29N 01°16' E 103°47'0 0.0
2018-Jan-20 08:59N 01°16' E 103°47'0 0.0
2018-Jan-20 08:25N 01°16' E 103°47'0 0.0
2018-Jan-20 08:00N 01°16' E 103°47'0 0.0
2018-Jan-20 07:25N 01°16' E 103°47'0 0.0
2018-Jan-20 07:00N 01°16' E 103°47'0 0.0
2018-Jan-20 06:28N 01°16' E 103°47'0 0.0
2018-Jan-20 05:58N 01°16' E 103°47'0 0.0
2018-Jan-20 05:28N 01°16' E 103°47'0 0.0
2018-Jan-20 04:58N 01°16' E 103°47'0 0.0
2018-Jan-20 04:22N 01°16' E 103°47'0 0.0
2018-Jan-20 03:58N 01°16' E 103°47'0 0.0
2018-Jan-20 03:28N 01°16' E 103°47'0 0.0
2018-Jan-20 02:58N 01°16' E 103°47'0 0.0
2018-Jan-20 02:28N 01°16' E 103°47'0 0.3
2018-Jan-20 01:56N 01°16' E 103°47'0 0.7
2018-Jan-20 01:28N 01°16' E 103°47'2 3.8
2018-Jan-20 00:59N 01°15' E 103°45'5 9.9
2018-Jan-20 00:29N 01°13' E 103°41'1 2.0
2018-Jan-19 23:59N 01°12' E 103°41'0 0.1
2018-Jan-19 23:29N 01°12' E 103°41'0 0.1
2018-Jan-19 22:56N 01°12' E 103°41'0 0.2
2018-Jan-19 22:29N 01°12' E 103°41'0 0.1
2018-Jan-19 21:59N 01°12' E 103°41'0 0.1
2018-Jan-19 21:29N 01°12' E 103°41'0 0.1
2018-Jan-19 20:59N 01°12' E 103°41'0 0.1
2018-Jan-19 20:29N 01°12' E 103°41'0 0.0
2018-Jan-19 19:59N 01°12' E 103°41'0 0.1
2018-Jan-19 19:29N 01°12' E 103°41'0 0.0
2018-Jan-19 18:59N 01°12' E 103°41'0 0.1
2018-Jan-19 18:29N 01°12' E 103°41'0 0.0
2018-Jan-19 17:59N 01°12' E 103°41'0 0.1
2018-Jan-19 17:29N 01°12' E 103°41'0 0.1
2018-Jan-19 16:59N 01°12' E 103°41'0 0.0
2018-Jan-19 16:29N 01°12' E 103°41'0 0.0
2018-Jan-19 15:59N 01°12' E 103°41'0 0.0
2018-Jan-19 15:29N 01°12' E 103°41'0 0.1
2018-Jan-19 14:59N 01°12' E 103°41'0 0.1
2018-Jan-19 14:29N 01°12' E 103°41'0 0.0
2018-Jan-19 13:59N 01°12' E 103°41'0 0.1
2018-Jan-19 13:26N 01°12' E 103°41'0 0.2
2018-Jan-19 12:56N 01°12' E 103°41'0 0.2
2018-Jan-19 12:26N 01°12' E 103°41'0 0.1
2018-Jan-19 11:59N 01°12' E 103°41'0 0.0
2018-Jan-19 11:29N 01°12' E 103°41'0 0.0
2018-Jan-19 10:59N 01°12' E 103°41'0 0.1
2018-Jan-19 10:29N 01°12' E 103°41'0 0.2
2018-Jan-19 09:59N 01°12' E 103°41'0 0.0
2018-Jan-19 09:29N 01°12' E 103°41'0 0.0
2018-Jan-19 08:59N 01°12' E 103°41'0 0.0
2018-Jan-19 08:26N 01°12' E 103°41'0 0.0
2018-Jan-19 07:59N 01°12' E 103°41'0 0.0
2018-Jan-19 07:29N 01°12' E 103°41'0 0.1
2018-Jan-19 06:53N 01°12' E 103°41'0 0.0
2018-Jan-19 06:29N 01°12' E 103°41'0 0.1
2018-Jan-19 05:59N 01°12' E 103°41'0 0.0
2018-Jan-19 05:29N 01°12' E 103°41'0 0.1
2018-Jan-19 04:59N 01°12' E 103°41'0 0.1
2018-Jan-19 04:26N 01°12' E 103°41'0 0.6
2018-Jan-19 04:00N 01°12' E 103°41'3 6.2
2018-Jan-19 03:30N 01°12' E 103°38'3 6.0
2018-Jan-19 03:01N 01°15' E 103°36'0 0.4
2018-Jan-19 02:30N 01°15' E 103°36'0 0.0
2018-Jan-19 02:00N 01°15' E 103°36'0 0.0
2018-Jan-19 01:27N 01°15' E 103°36'0 0.0
2018-Jan-19 01:00N 01°15' E 103°36'0 0.0
2018-Jan-19 00:31N 01°15' E 103°36'0 0.0
2018-Jan-19 00:00N 01°15' E 103°36'0 0.0
2018-Jan-18 23:30N 01°15' E 103°36'0 0.0
2018-Jan-18 23:00N 01°15' E 103°36'0 0.0
2018-Jan-18 22:30N 01°15' E 103°36'0 0.0
2018-Jan-18 22:00N 01°15' E 103°36'0 0.0
2018-Jan-18 21:30N 01°15' E 103°36'0 0.0
2018-Jan-18 21:00N 01°15' E 103°36'0 0.0
2018-Jan-18 20:30N 01°15' E 103°36'0 0.0
2018-Jan-18 20:00N 01°15' E 103°36'0 0.0
2018-Jan-18 19:30N 01°15' E 103°36'0 0.0
2018-Jan-18 19:00N 01°15' E 103°36'0 0.0
2018-Jan-18 18:31N 01°15' E 103°36'0 0.0
2018-Jan-18 18:00N 01°15' E 103°36'0 0.0
2018-Jan-18 17:30N 01°15' E 103°36'0 0.0
2018-Jan-18 17:00N 01°15' E 103°36'0 0.0
2018-Jan-18 16:31N 01°15' E 103°36'0 0.0
2018-Jan-18 16:01N 01°15' E 103°36'0 0.0
2018-Jan-18 15:30N 01°15' E 103°36'0 0.0
2018-Jan-18 15:00N 01°15' E 103°36'0 0.0
2018-Jan-18 14:31N 01°15' E 103°36'0 0.0
2018-Jan-18 14:01N 01°15' E 103°36'0 0.0
2018-Jan-18 13:30N 01°15' E 103°36'0 0.0
2018-Jan-18 13:01N 01°15' E 103°36'0 0.0
2018-Jan-18 12:31N 01°15' E 103°36'0 0.0
2018-Jan-18 12:00N 01°15' E 103°36'0 0.0
2018-Jan-18 11:30N 01°15' E 103°36'0 0.0
2018-Jan-18 11:01N 01°15' E 103°36'0 0.0
2018-Jan-18 10:30N 01°15' E 103°36'0 0.0
2018-Jan-18 10:00N 01°15' E 103°36'0 0.0
2018-Jan-18 09:29N 01°15' E 103°36'0 0.0
2018-Jan-18 09:01N 01°15' E 103°36'0 0.0
2018-Jan-18 08:30N 01°15' E 103°36'0 0.0
2018-Jan-18 08:01N 01°15' E 103°36'0 0.0
2018-Jan-18 07:31N 01°15' E 103°36'0 0.0
2018-Jan-18 07:01N 01°15' E 103°36'0 0.0
2018-Jan-18 06:30N 01°15' E 103°36'0 0.0
2018-Jan-18 06:00N 01°15' E 103°36'0 0.0
2018-Jan-18 05:30N 01°15' E 103°36'0 0.0
2018-Jan-18 05:01N 01°15' E 103°36'0 0.0
2018-Jan-18 04:30N 01°15' E 103°36'0 0.0
2018-Jan-18 04:00N 01°15' E 103°36'0 0.0
2018-Jan-18 03:30N 01°15' E 103°36'0 0.0
2018-Jan-18 03:00N 01°15' E 103°36'0 0.0
2018-Jan-18 02:30N 01°15' E 103°36'0 0.0
2018-Jan-18 02:00N 01°15' E 103°36'0 0.0
2018-Jan-18 01:30N 01°15' E 103°36'0 0.0
2018-Jan-18 01:01N 01°15' E 103°36'0 0.0
2018-Jan-18 00:00N 01°15' E 103°36'0 0.0
2018-Jan-17 23:58N 01°15' E 103°36'  
2018-Jan-12 14:59N 01°15' E 103°36'0 0.0
2018-Jan-12 14:30N 01°15' E 103°36'0 0.0
2018-Jan-12 14:01N 01°15' E 103°36'0 0.0
2018-Jan-12 13:30N 01°15' E 103°36'0 0.0
2018-Jan-12 13:00N 01°15' E 103°36'0 0.0
2018-Jan-12 12:30N 01°15' E 103°36'0 0.0
2018-Jan-12 12:00N 01°15' E 103°36'0 0.0
2018-Jan-12 11:31N 01°15' E 103°36'0 0.0
2018-Jan-12 11:01N 01°15' E 103°36'0 0.0
2018-Jan-12 10:31N 01°15' E 103°36'0 0.0
2018-Jan-12 10:00N 01°15' E 103°36'0 0.0
2018-Jan-12 09:30N 01°15' E 103°36'0 0.0
2018-Jan-12 09:01N 01°15' E 103°36'0 0.0
2018-Jan-12 08:30N 01°15' E 103°36'0 0.0
2018-Jan-12 08:01N 01°15' E 103°36'0 0.0
2018-Jan-12 07:31N 01°15' E 103°36'0 0.0
2018-Jan-12 07:00N 01°15' E 103°36'0 0.0
2018-Jan-12 06:30N 01°15' E 103°36'0 0.0
2018-Jan-12 05:58N 01°15' E 103°36'0 0.0
2018-Jan-12 05:30N 01°15' E 103°36'0 0.0
2018-Jan-12 05:00N 01°15' E 103°36'0 0.0
2018-Jan-12 04:30N 01°15' E 103°36'0 0.0
2018-Jan-12 03:59N 01°15' E 103°36'0 0.0
2018-Jan-12 03:30N 01°15' E 103°36'0 0.0
2018-Jan-12 03:00N 01°15' E 103°36'0 0.0
2018-Jan-12 02:30N 01°15' E 103°36'0 0.0
2018-Jan-12 02:00N 01°15' E 103°36'0 0.0
2018-Jan-12 01:31N 01°15' E 103°36'0 0.0
2018-Jan-12 01:01N 01°15' E 103°36'0 0.0
2018-Jan-12 00:30N 01°15' E 103°36'0 0.0
2018-Jan-12 00:00N 01°15' E 103°36'0 0.0
2018-Jan-11 23:31N 01°15' E 103°36'0 0.0
2018-Jan-11 23:00N 01°15' E 103°36'0 0.0
2018-Jan-11 22:31N 01°15' E 103°36'0 0.0
2018-Jan-11 22:00N 01°15' E 103°36'0 0.0
2018-Jan-11 21:30N 01°15' E 103°36'0 0.0
2018-Jan-11 20:59N 01°15' E 103°36'0 0.0
2018-Jan-11 20:30N 01°15' E 103°36'0 0.0
2018-Jan-11 20:01N 01°15' E 103°36'0 0.0
2018-Jan-11 19:30N 01°15' E 103°36'0 0.0
2018-Jan-11 19:01N 01°15' E 103°36'0 0.0
2018-Jan-11 18:31N 01°15' E 103°36'0 0.0
2018-Jan-11 17:59N 01°15' E 103°36'0 0.0
2018-Jan-11 17:30N 01°15' E 103°36'0 0.0
2018-Jan-11 17:00N 01°15' E 103°36'0 0.0
2018-Jan-11 16:30N 01°15' E 103°36'0 0.0
2018-Jan-11 15:59N 01°15' E 103°36'0 0.0
2018-Jan-11 15:31N 01°15' E 103°36'0 0.0
2018-Jan-11 14:59N 01°15' E 103°36'0 0.0
2018-Jan-11 14:31N 01°15' E 103°36'0 0.0
2018-Jan-11 13:58N 01°15' E 103°36'0 0.0
2018-Jan-11 13:30N 01°15' E 103°36'0 0.0
2018-Jan-11 12:59N 01°15' E 103°36'0 0.0
2018-Jan-11 12:31N 01°15' E 103°36'  
Track history (hours):
 
Tides and Currents Weather Stations Pressure Air Temp Water Temp Dewpoint Dewpoint Depression Visibility Wind Speed Wind Dir Waves Ship Positions

Maersk Dayton

Last reported at 2018-Jan-21 12:08 UTC. Time now 2018-Jan-22 04:30 UTC.
Position N 01°15' E 104°13'.

Length 281 m; beam 32.2 m; draft 12.5 m.

Type: Ship. MMSI: 218024000.

Date/timePositionNaut miles runAvg speedWind from/ knotsBaromVisibWave heightAir tempDewpointWater temp
2018-Jan-21 12:08N 01°15' E 104°13'718.1
2018-Jan-21 11:46N 01°15' E 104°06'518.1
2018-Jan-21 11:30N 01°15' E 104°01'916.4
2018-Jan-21 10:57N 01°13' E 103°53'3 7.4
2018-Jan-21 10:30N 01°16' E 103°51'0 0.3
2018-Jan-21 09:51N 01°16' E 103°50'0 0.0
2018-Jan-21 09:27N 01°16' E 103°50'0 0.0
2018-Jan-21 08:57N 01°16' E 103°50'0 0.1
2018-Jan-21 08:21N 01°16' E 103°50'0 0.2
2018-Jan-21 07:58N 01°16' E 103°50'0 0.0
2018-Jan-21 07:07N 01°16' E 103°50'0 0.0
2018-Jan-21 06:22N 01°16' E 103°50'0 0.0
2018-Jan-21 05:55N 01°16' E 103°50'0 0.1
2018-Jan-21 05:21N 01°16' E 103°50'0 0.1
2018-Jan-21 04:33N 01°16' E 103°50'0 0.0
2018-Jan-21 04:30N 01°16' E 103°50'0 0.1
2018-Jan-21 03:54N 01°16' E 103°50'0 0.1
2018-Jan-21 03:29N 01°16' E 103°50'0 0.0
2018-Jan-21 02:59N 01°16' E 103°50'0 0.1
2018-Jan-21 02:29N 01°16' E 103°50'0 0.1
2018-Jan-21 01:59N 01°16' E 103°50'0 0.0
2018-Jan-21 01:05N 01°16' E 103°50'0 0.0
2018-Jan-21 00:59N 01°16' E 103°50'0 0.1
2018-Jan-21 00:24N 01°16' E 103°50'0 1.0
2018-Jan-21 00:00N 01°16' E 103°51'3 5.4
2018-Jan-20 23:30N 01°13' E 103°52'5 9.3
2018-Jan-20 23:00N 01°13' E 103°48'3 6.2
2018-Jan-20 22:30N 01°16' E 103°47'0 0.4
2018-Jan-20 21:58N 01°16' E 103°47'0 0.0
2018-Jan-20 21:27N 01°16' E 103°47'0 0.0
2018-Jan-20 20:57N 01°16' E 103°47'0 0.0
2018-Jan-20 20:24N 01°16' E 103°47'0 0.0
2018-Jan-20 19:54N 01°16' E 103°47'0 0.1
2018-Jan-20 19:27N 01°16' E 103°47'0 0.0
2018-Jan-20 18:53N 01°16' E 103°47'0 0.0
2018-Jan-20 18:26N 01°16' E 103°47'0 0.0
2018-Jan-20 17:46N 01°16' E 103°47'0 0.0
2018-Jan-20 17:22N 01°16' E 103°47'0 0.0
2018-Jan-20 16:58N 01°16' E 103°47'0 0.0
2018-Jan-20 16:28N 01°16' E 103°47'0 0.0
2018-Jan-20 15:55N 01°16' E 103°47'0 0.0
2018-Jan-20 15:28N 01°16' E 103°47'0 0.0
2018-Jan-20 14:58N 01°16' E 103°47'0 0.0
2018-Jan-20 14:30N 01°17' E 103°47'0 0.0
2018-Jan-20 13:58N 01°16' E 103°47'0 0.0
2018-Jan-20 13:28N 01°16' E 103°47'0 0.0
2018-Jan-20 12:58N 01°16' E 103°47'0 0.0
2018-Jan-20 12:22N 01°16' E 103°47'0 0.0
2018-Jan-20 11:52N 01°16' E 103°47'0 0.0
2018-Jan-20 11:25N 01°16' E 103°47'0 0.0
2018-Jan-20 10:58N 01°16' E 103°47'0 0.0
2018-Jan-20 10:16N 01°16' E 103°47'0 0.0
2018-Jan-20 09:58N 01°16' E 103°47'0 0.0
2018-Jan-20 09:29N 01°16' E 103°47'0 0.0
2018-Jan-20 08:59N 01°16' E 103°47'0 0.0
2018-Jan-20 08:25N 01°16' E 103°47'0 0.0
2018-Jan-20 08:00N 01°16' E 103°47'0 0.0
2018-Jan-20 07:25N 01°16' E 103°47'0 0.0
2018-Jan-20 07:00N 01°16' E 103°47'0 0.0
2018-Jan-20 06:28N 01°16' E 103°47'0 0.0
2018-Jan-20 05:58N 01°16' E 103°47'0 0.0
2018-Jan-20 05:28N 01°16' E 103°47'0 0.0
2018-Jan-20 04:58N 01°16' E 103°47'0 0.0
2018-Jan-20 04:22N 01°16' E 103°47'0 0.0
2018-Jan-20 03:58N 01°16' E 103°47'0 0.0
2018-Jan-20 03:28N 01°16' E 103°47'0 0.0
2018-Jan-20 02:58N 01°16' E 103°47'0 0.0
2018-Jan-20 02:28N 01°16' E 103°47'0 0.3
2018-Jan-20 01:56N 01°16' E 103°47'0 0.7
2018-Jan-20 01:28N 01°16' E 103°47'2 3.8
2018-Jan-20 00:59N 01°15' E 103°45'5 9.9
2018-Jan-20 00:29N 01°13' E 103°41'1 2.0
2018-Jan-19 23:59N 01°12' E 103°41'0 0.1
2018-Jan-19 23:29N 01°12' E 103°41'0 0.1
2018-Jan-19 22:56N 01°12' E 103°41'0 0.2
2018-Jan-19 22:29N 01°12' E 103°41'0 0.1
2018-Jan-19 21:59N 01°12' E 103°41'0 0.1
2018-Jan-19 21:29N 01°12' E 103°41'0 0.1
2018-Jan-19 20:59N 01°12' E 103°41'0 0.1
2018-Jan-19 20:29N 01°12' E 103°41'0 0.0
2018-Jan-19 19:59N 01°12' E 103°41'0 0.1
2018-Jan-19 19:29N 01°12' E 103°41'0 0.0
2018-Jan-19 18:59N 01°12' E 103°41'0 0.1
2018-Jan-19 18:29N 01°12' E 103°41'0 0.0
2018-Jan-19 17:59N 01°12' E 103°41'0 0.1
2018-Jan-19 17:29N 01°12' E 103°41'0 0.1
2018-Jan-19 16:59N 01°12' E 103°41'0 0.0
2018-Jan-19 16:29N 01°12' E 103°41'0 0.0
2018-Jan-19 15:59N 01°12' E 103°41'0 0.0
2018-Jan-19 15:29N 01°12' E 103°41'0 0.1
2018-Jan-19 14:59N 01°12' E 103°41'0 0.1
2018-Jan-19 14:29N 01°12' E 103°41'0 0.0
2018-Jan-19 13:59N 01°12' E 103°41'0 0.1
2018-Jan-19 13:26N 01°12' E 103°41'0 0.2
2018-Jan-19 12:56N 01°12' E 103°41'0 0.2
2018-Jan-19 12:26N 01°12' E 103°41'0 0.1
2018-Jan-19 11:59N 01°12' E 103°41'0 0.0
2018-Jan-19 11:29N 01°12' E 103°41'0 0.0
2018-Jan-19 10:59N 01°12' E 103°41'0 0.1
2018-Jan-19 10:29N 01°12' E 103°41'0 0.2
2018-Jan-19 09:59N 01°12' E 103°41'0 0.0
2018-Jan-19 09:29N 01°12' E 103°41'0 0.0
2018-Jan-19 08:59N 01°12' E 103°41'0 0.0
2018-Jan-19 08:26N 01°12' E 103°41'0 0.0
2018-Jan-19 07:59N 01°12' E 103°41'0 0.0
2018-Jan-19 07:29N 01°12' E 103°41'0 0.1
2018-Jan-19 06:53N 01°12' E 103°41'0 0.0
2018-Jan-19 06:29N 01°12' E 103°41'0 0.1
2018-Jan-19 05:59N 01°12' E 103°41'0 0.0
2018-Jan-19 05:29N 01°12' E 103°41'0 0.1
2018-Jan-19 04:59N 01°12' E 103°41'0 0.1
2018-Jan-19 04:26N 01°12' E 103°41'0 0.6
2018-Jan-19 04:00N 01°12' E 103°41'3 6.2
2018-Jan-19 03:30N 01°12' E 103°38'3 6.0
2018-Jan-19 03:01N 01°15' E 103°36'0 0.4
2018-Jan-19 02:30N 01°15' E 103°36'0 0.0
2018-Jan-19 02:00N 01°15' E 103°36'0 0.0
2018-Jan-19 01:27N 01°15' E 103°36'0 0.0
2018-Jan-19 01:00N 01°15' E 103°36'0 0.0
2018-Jan-19 00:31N 01°15' E 103°36'0 0.0
2018-Jan-19 00:00N 01°15' E 103°36'0 0.0
2018-Jan-18 23:30N 01°15' E 103°36'0 0.0
2018-Jan-18 23:00N 01°15' E 103°36'0 0.0
2018-Jan-18 22:30N 01°15' E 103°36'0 0.0
2018-Jan-18 22:00N 01°15' E 103°36'0 0.0
2018-Jan-18 21:30N 01°15' E 103°36'0 0.0
2018-Jan-18 21:00N 01°15' E 103°36'0 0.0
2018-Jan-18 20:30N 01°15' E 103°36'0 0.0
2018-Jan-18 20:00N 01°15' E 103°36'0 0.0
2018-Jan-18 19:30N 01°15' E 103°36'0 0.0
2018-Jan-18 19:00N 01°15' E 103°36'0 0.0
2018-Jan-18 18:31N 01°15' E 103°36'0 0.0
2018-Jan-18 18:00N 01°15' E 103°36'0 0.0
2018-Jan-18 17:30N 01°15' E 103°36'0 0.0
2018-Jan-18 17:00N 01°15' E 103°36'0 0.0
2018-Jan-18 16:31N 01°15' E 103°36'0 0.0
2018-Jan-18 16:01N 01°15' E 103°36'0 0.0
2018-Jan-18 15:30N 01°15' E 103°36'0 0.0
2018-Jan-18 15:00N 01°15' E 103°36'0 0.0
2018-Jan-18 14:31N 01°15' E 103°36'0 0.0
2018-Jan-18 14:01N 01°15' E 103°36'0 0.0
2018-Jan-18 13:30N 01°15' E 103°36'0 0.0
2018-Jan-18 13:01N 01°15' E 103°36'0 0.0
2018-Jan-18 12:31N 01°15' E 103°36'0 0.0
2018-Jan-18 12:00N 01°15' E 103°36'0 0.0
2018-Jan-18 11:30N 01°15' E 103°36'0 0.0
2018-Jan-18 11:01N 01°15' E 103°36'0 0.0
2018-Jan-18 10:30N 01°15' E 103°36'0 0.0
2018-Jan-18 10:00N 01°15' E 103°36'0 0.0
2018-Jan-18 09:29N 01°15' E 103°36'0 0.0
2018-Jan-18 09:01N 01°15' E 103°36'0 0.0
2018-Jan-18 08:30N 01°15' E 103°36'0 0.0
2018-Jan-18 08:01N 01°15' E 103°36'0 0.0
2018-Jan-18 07:31N 01°15' E 103°36'0 0.0
2018-Jan-18 07:01N 01°15' E 103°36'0 0.0
2018-Jan-18 06:30N 01°15' E 103°36'0 0.0
2018-Jan-18 06:00N 01°15' E 103°36'0 0.0
2018-Jan-18 05:30N 01°15' E 103°36'0 0.0
2018-Jan-18 05:01N 01°15' E 103°36'0 0.0
2018-Jan-18 04:30N 01°15' E 103°36'0 0.0
2018-Jan-18 04:00N 01°15' E 103°36'0 0.0
2018-Jan-18 03:30N 01°15' E 103°36'0 0.0
2018-Jan-18 03:00N 01°15' E 103°36'0 0.0
2018-Jan-18 02:30N 01°15' E 103°36'0 0.0
2018-Jan-18 02:00N 01°15' E 103°36'0 0.0
2018-Jan-18 01:30N 01°15' E 103°36'0 0.0
2018-Jan-18 01:01N 01°15' E 103°36'0 0.0
2018-Jan-18 00:00N 01°15' E 103°36'0 0.0
2018-Jan-17 23:58N 01°15' E 103°36'  
2018-Jan-12 14:59N 01°15' E 103°36'0 0.0
2018-Jan-12 14:30N 01°15' E 103°36'0 0.0
2018-Jan-12 14:01N 01°15' E 103°36'0 0.0
2018-Jan-12 13:30N 01°15' E 103°36'0 0.0
2018-Jan-12 13:00N 01°15' E 103°36'0 0.0
2018-Jan-12 12:30N 01°15' E 103°36'0 0.0
2018-Jan-12 12:00N 01°15' E 103°36'0 0.0
2018-Jan-12 11:31N 01°15' E 103°36'0 0.0
2018-Jan-12 11:01N 01°15' E 103°36'0 0.0
2018-Jan-12 10:31N 01°15' E 103°36'0 0.0
2018-Jan-12 10:00N 01°15' E 103°36'0 0.0
2018-Jan-12 09:30N 01°15' E 103°36'0 0.0
2018-Jan-12 09:01N 01°15' E 103°36'0 0.0
2018-Jan-12 08:30N 01°15' E 103°36'0 0.0
2018-Jan-12 08:01N 01°15' E 103°36'0 0.0
2018-Jan-12 07:31N 01°15' E 103°36'0 0.0
2018-Jan-12 07:00N 01°15' E 103°36'0 0.0
2018-Jan-12 06:30N 01°15' E 103°36'0 0.0
2018-Jan-12 05:58N 01°15' E 103°36'0 0.0
2018-Jan-12 05:30N 01°15' E 103°36'0 0.0
2018-Jan-12 05:00N 01°15' E 103°36'0 0.0
2018-Jan-12 04:30N 01°15' E 103°36'0 0.0
2018-Jan-12 03:59N 01°15' E 103°36'0 0.0
2018-Jan-12 03:30N 01°15' E 103°36'0 0.0
2018-Jan-12 03:00N 01°15' E 103°36'0 0.0
2018-Jan-12 02:30N 01°15' E 103°36'0 0.0
2018-Jan-12 02:00N 01°15' E 103°36'0 0.0
2018-Jan-12 01:31N 01°15' E 103°36'0 0.0
2018-Jan-12 01:01N 01°15' E 103°36'0 0.0
2018-Jan-12 00:30N 01°15' E 103°36'0 0.0
2018-Jan-12 00:00N 01°15' E 103°36'0 0.0
2018-Jan-11 23:31N 01°15' E 103°36'0 0.0
2018-Jan-11 23:00N 01°15' E 103°36'0 0.0
2018-Jan-11 22:31N 01°15' E 103°36'0 0.0
2018-Jan-11 22:00N 01°15' E 103°36'0 0.0
2018-Jan-11 21:30N 01°15' E 103°36'0 0.0
2018-Jan-11 20:59N 01°15' E 103°36'0 0.0
2018-Jan-11 20:30N 01°15' E 103°36'0 0.0
2018-Jan-11 20:01N 01°15' E 103°36'0 0.0
2018-Jan-11 19:30N 01°15' E 103°36'0 0.0
2018-Jan-11 19:01N 01°15' E 103°36'0 0.0
2018-Jan-11 18:31N 01°15' E 103°36'0 0.0
2018-Jan-11 17:59N 01°15' E 103°36'0 0.0
2018-Jan-11 17:30N 01°15' E 103°36'0 0.0
2018-Jan-11 17:00N 01°15' E 103°36'0 0.0
2018-Jan-11 16:30N 01°15' E 103°36'0 0.0
2018-Jan-11 15:59N 01°15' E 103°36'0 0.0
2018-Jan-11 15:31N 01°15' E 103°36'0 0.0
2018-Jan-11 14:59N 01°15' E 103°36'0 0.0
2018-Jan-11 14:31N 01°15' E 103°36'0 0.0
2018-Jan-11 13:58N 01°15' E 103°36'0 0.0
2018-Jan-11 13:30N 01°15' E 103°36'0 0.0
2018-Jan-11 12:59N 01°15' E 103°36'0 0.0
2018-Jan-11 12:31N 01°15' E 103°36'  

Dump ship's entire track history